Time;durP1;ratioP1;P1;durP2;ratioP2;P2;SDS_P1;SDS_P2;PMS_P1;PMS_P2;Temp;Humidity;BMP_temperature;BMP_pressure;BME280_temperature;BME280_humidity;BME280_pressure;Samples;Min_cycle;Max_cycle;Signal;HPM_P1;HPM_P2
2023/08/02 00:01:47;;;;;;;10.40;7.55;;;;;;;;;;6248031;22;20074;-81
2023/08/02 00:04:13;;;;;;;14.85;7.63;;;;;;;;;;6275100;22;20007;-81
2023/08/02 00:06:38;;;;;;;16.38;8.10;;;;;;;;;;6222563;22;20008;-81
2023/08/02 00:09:03;;;;;;;9.32;7.47;;;;;;;;;;6247655;22;19996;-81
2023/08/02 00:11:29;;;;;;;12.77;7.78;;;;;;;;;;6247774;22;20443;-81
2023/08/02 00:13:54;;;;;;;13.48;7.75;;;;;;;;;;6248958;22;20401;-81
2023/08/02 00:16:20;;;;;;;11.32;7.53;;;;;;;;;;6249648;22;20004;-81
2023/08/02 00:18:45;;;;;;;10.07;7.18;;;;;;;;;;6249941;22;19999;-81
2023/08/02 00:21:11;;;;;;;10.52;7.60;;;;;;;;;;6277761;22;20007;-82
2023/08/02 00:23:36;;;;;;;8.35;7.30;;;;;;;;;;6250018;22;20335;-81
2023/08/02 00:26:02;;;;;;;9.02;7.25;;;;;;;;;;6276968;22;20060;-81
2023/08/02 00:28:27;;;;;;;12.65;8.05;;;;;;;;;;6277216;22;20432;-82
2023/08/02 00:30:52;;;;;;;10.10;7.30;;;;;;;;;;6224362;22;20320;-81
2023/08/02 00:33:18;;;;;;;10.70;8.07;;;;;;;;;;6276581;22;20057;-82
2023/08/02 00:35:44;;;;;;;13.77;7.72;;;;;;;;;;6276769;22;20037;-81
2023/08/02 00:38:10;;;;;;;9.98;7.57;;;;;;;;;;6224493;22;20015;-83
2023/08/02 00:40:35;;;;;;;10.07;7.85;;;;;;;;;;6249436;22;20423;-81
2023/08/02 00:43:00;;;;;;;9.75;7.35;;;;;;;;;;6285008;22;20030;-82
2023/08/02 00:45:26;;;;;;;10.90;7.97;;;;;;;;;;6277919;22;20004;-83
2023/08/02 00:47:51;;;;;;;12.23;7.75;;;;;;;;;;6249682;22;20431;-80
2023/08/02 00:50:16;;;;;;;10.43;7.88;;;;;;;;;;6224260;22;20000;-83
2023/08/02 00:52:42;;;;;;;11.70;7.65;;;;;;;;;;6249213;22;20058;-81
2023/08/02 00:55:07;;;;;;;11.93;7.95;;;;;;;;;;6224184;22;20023;-81
2023/08/02 00:57:33;;;;;;;11.02;8.07;;;;;;;;;;6224353;22;20004;-81
2023/08/02 00:59:58;;;;;;;12.07;8.55;;;;;;;;;;6224062;22;20003;-81
2023/08/02 01:02:24;;;;;;;16.40;8.82;;;;;;;;;;6276581;22;20027;-82
2023/08/02 01:04:50;;;;;;;12.60;8.60;;;;;;;;;;6251246;22;20006;-81
2023/08/02 01:07:27;;;;;;;14.60;8.95;;;;;;;;;;6254814;22;20448;-82
2023/08/02 01:09:58;;;;;;;11.50;8.70;;;;;;;;;;6276276;22;20403;-81
2023/08/02 01:12:24;;;;;;;10.63;8.50;;;;;;;;;;6276028;22;20010;-82
2023/08/02 01:14:50;;;;;;;14.10;8.98;;;;;;;;;;6249211;22;20428;-82
2023/08/02 01:17:16;;;;;;;12.48;8.80;;;;;;;;;;6249138;22;20427;-82
2023/08/02 01:19:42;;;;;;;14.77;8.80;;;;;;;;;;6249257;22;20003;-82
2023/08/02 01:22:08;;;;;;;13.30;8.75;;;;;;;;;;6275916;22;20003;-81
2023/08/02 01:24:34;;;;;;;16.13;9.15;;;;;;;;;;6223644;22;20027;-82
2023/08/02 01:27:09;;;;;;;13.27;9.32;;;;;;;;;;6224193;22;20008;-83
2023/08/02 01:29:35;;;;;;;14.18;8.98;;;;;;;;;;6237874;22;20007;-82
2023/08/02 01:32:01;;;;;;;15.70;8.68;;;;;;;;;;6276884;22;20000;-83
2023/08/02 01:34:27;;;;;;;15.40;9.15;;;;;;;;;;6248801;22;20492;-82
2023/08/02 01:36:52;;;;;;;13.05;8.98;;;;;;;;;;6223536;22;20030;-82
2023/08/02 01:39:18;;;;;;;18.00;9.55;;;;;;;;;;6248990;22;20069;-81
2023/08/02 01:41:43;;;;;;;10.10;8.32;;;;;;;;;;6275668;22;20130;-81
2023/08/02 01:44:09;;;;;;;11.65;8.73;;;;;;;;;;6276084;22;20008;-81
2023/08/02 01:46:34;;;;;;;9.88;8.50;;;;;;;;;;6276156;22;20033;-82
2023/08/02 01:49:00;;;;;;;14.18;8.25;;;;;;;;;;6276423;22;20079;-81
2023/08/02 01:51:25;;;;;;;10.32;8.60;;;;;;;;;;6279160;22;20012;-81
2023/08/02 01:53:50;;;;;;;11.80;8.82;;;;;;;;;;6281342;22;20008;-81
2023/08/02 01:56:16;;;;;;;11.07;8.25;;;;;;;;;;6275912;22;20003;-82
2023/08/02 01:58:42;;;;;;;12.88;8.10;;;;;;;;;;6275693;22;20065;-80
2023/08/02 02:01:07;;;;;;;10.20;8.70;;;;;;;;;;6275856;22;20003;-81
2023/08/02 02:03:33;;;;;;;11.10;8.63;;;;;;;;;;6275923;22;20019;-81
2023/08/02 02:05:59;;;;;;;13.68;8.70;;;;;;;;;;6248835;22;20517;-81
2023/08/02 02:08:24;;;;;;;12.50;8.45;;;;;;;;;;6276039;22;19999;-82
2023/08/02 02:10:51;;;;;;;11.50;8.40;;;;;;;;;;6275858;22;20000;-80
2023/08/02 02:13:17;;;;;;;9.32;7.90;;;;;;;;;;6275442;22;20061;-82
2023/08/02 02:15:42;;;;;;;17.50;8.38;;;;;;;;;;6258433;22;20427;-81
2023/08/02 02:18:08;;;;;;;15.15;8.60;;;;;;;;;;6276562;22;19995;-81
2023/08/02 02:20:34;;;;;;;13.18;8.68;;;;;;;;;;6250720;22;20466;-81
2023/08/02 02:22:59;;;;;;;11.50;8.35;;;;;;;;;;6281283;22;20023;-81
2023/08/02 02:25:24;;;;;;;11.02;8.75;;;;;;;;;;6281704;22;20030;-81
2023/08/02 02:27:50;;;;;;;12.70;8.50;;;;;;;;;;6254255;22;20067;-81
2023/08/02 02:30:16;;;;;;;11.88;8.82;;;;;;;;;;6278154;22;20004;-80
2023/08/02 02:32:41;;;;;;;16.20;8.73;;;;;;;;;;6253376;22;20000;-81
2023/08/02 02:35:07;;;;;;;12.57;8.38;;;;;;;;;;6249804;22;20003;-81
2023/08/02 02:37:32;;;;;;;13.10;8.68;;;;;;;;;;6277937;22;20000;-81
2023/08/02 02:40:17;;;;;;;9.73;8.18;;;;;;;;;;6284300;22;20017;-81
2023/08/02 02:42:43;;;;;;;14.13;8.70;;;;;;;;;;6275101;22;20470;-82
2023/08/02 02:45:09;;;;;;;12.52;7.97;;;;;;;;;;6248239;22;20601;-81
2023/08/02 02:47:34;;;;;;;11.07;8.52;;;;;;;;;;6223490;22;20078;-82
2023/08/02 02:49:59;;;;;;;14.73;8.32;;;;;;;;;;6275682;22;20035;-81
2023/08/02 02:52:25;;;;;;;13.30;8.65;;;;;;;;;;6274863;22;20400;-81
2023/08/02 02:54:50;;;;;;;10.93;8.82;;;;;;;;;;6275878;22;20004;-83
2023/08/02 02:57:17;;;;;;;14.15;9.00;;;;;;;;;;6247825;22;20426;-82
2023/08/02 02:59:42;;;;;;;11.60;8.32;;;;;;;;;;6248168;22;20007;-81
2023/08/02 03:02:08;;;;;;;12.25;8.70;;;;;;;;;;6282404;22;20031;-80
2023/08/02 03:04:33;;;;;;;13.88;8.48;;;;;;;;;;6226035;22;20003;-81
2023/08/02 03:06:59;;;;;;;9.30;8.27;;;;;;;;;;6248410;22;20074;-82
2023/08/02 03:09:24;;;;;;;12.45;8.48;;;;;;;;;;6248040;22;20004;-82
2023/08/02 03:11:50;;;;;;;10.57;7.82;;;;;;;;;;6275209;22;19995;-81
2023/08/02 03:14:15;;;;;;;10.10;7.88;;;;;;;;;;6275199;22;20015;-81
2023/08/02 03:16:43;;;;;;;10.10;7.53;;;;;;;;;;6275189;22;20004;-81
2023/08/02 03:19:09;;;;;;;9.20;7.75;;;;;;;;;;6248143;22;20091;-81
2023/08/02 03:21:35;;;;;;;12.25;8.38;;;;;;;;;;6223015;22;20000;-81
2023/08/02 03:24:00;;;;;;;10.13;7.75;;;;;;;;;;6251965;22;20023;-82
2023/08/02 03:26:26;;;;;;;10.20;7.75;;;;;;;;;;6279231;22;20056;-82
2023/08/02 03:28:51;;;;;;;11.48;7.35;;;;;;;;;;6248420;22;20004;-81
2023/08/02 03:31:17;;;;;;;10.52;6.88;;;;;;;;;;6274938;22;20000;-81
2023/08/02 03:33:42;;;;;;;10.38;6.80;;;;;;;;;;6275183;22;20007;-81
2023/08/02 03:36:07;;;;;;;10.63;8.23;;;;;;;;;;6274971;22;20021;-81
2023/08/02 03:38:33;;;;;;;11.43;7.70;;;;;;;;;;6275090;22;20003;-81
2023/08/02 03:40:58;;;;;;;10.80;7.78;;;;;;;;;;6247836;22;20010;-81
2023/08/02 03:43:24;;;;;;;9.90;7.70;;;;;;;;;;6248245;22;20057;-81
2023/08/02 03:45:49;;;;;;;10.07;7.57;;;;;;;;;;6274785;22;20000;-81
2023/08/02 03:48:15;;;;;;;9.43;7.50;;;;;;;;;;6285672;22;20024;-81
2023/08/02 03:50:41;;;;;;;12.73;7.07;;;;;;;;;;6250784;22;20078;-81
2023/08/02 03:53:06;;;;;;;9.07;7.00;;;;;;;;;;6250117;22;20011;-81
2023/08/02 03:55:32;;;;;;;9.27;7.50;;;;;;;;;;6276504;22;20067;-82
2023/08/02 03:57:57;;;;;;;10.55;7.57;;;;;;;;;;6276855;22;20004;-81
2023/08/02 04:00:23;;;;;;;14.82;7.10;;;;;;;;;;6276772;22;20049;-81
2023/08/02 04:02:48;;;;;;;9.60;6.82;;;;;;;;;;6277266;22;20015;-81
2023/08/02 04:05:14;;;;;;;8.63;7.03;;;;;;;;;;6277107;22;19999;-82
2023/08/02 04:07:39;;;;;;;11.93;7.38;;;;;;;;;;6249773;22;20087;-81
2023/08/02 04:10:05;;;;;;;11.02;8.07;;;;;;;;;;6282704;22;20024;-81
2023/08/02 04:12:30;;;;;;;9.77;7.47;;;;;;;;;;6254795;22;20415;-81
2023/08/02 04:14:56;;;;;;;11.35;7.13;;;;;;;;;;6249733;22;20059;-81
2023/08/02 04:17:22;;;;;;;11.85;8.20;;;;;;;;;;6224655;22;20007;-81
2023/08/02 04:19:47;;;;;;;14.18;7.68;;;;;;;;;;6224767;22;20000;-81
2023/08/02 04:22:13;;;;;;;12.40;8.05;;;;;;;;;;6276586;22;20004;-81
2023/08/02 04:24:38;;;;;;;12.93;7.93;;;;;;;;;;6276517;22;20153;-81
2023/08/02 04:27:04;;;;;;;10.05;7.97;;;;;;;;;;6277069;22;20007;-81
2023/08/02 04:29:29;;;;;;;9.18;7.40;;;;;;;;;;6249469;22;20023;-81
2023/08/02 04:31:55;;;;;;;11.60;7.00;;;;;;;;;;6276775;22;20011;-81
2023/08/02 04:34:20;;;;;;;9.93;7.13;;;;;;;;;;6286823;22;20086;-81
2023/08/02 04:36:46;;;;;;;13.50;7.40;;;;;;;;;;6277694;22;20004;-81
2023/08/02 04:39:12;;;;;;;11.43;7.53;;;;;;;;;;6277116;22;19999;-81
2023/08/02 04:41:37;;;;;;;12.13;6.90;;;;;;;;;;6276969;22;20309;-81
2023/08/02 04:44:03;;;;;;;9.90;7.38;;;;;;;;;;6276666;22;20090;-81
2023/08/02 04:46:28;;;;;;;9.65;6.72;;;;;;;;;;6249619;22;20008;-81
2023/08/02 04:48:54;;;;;;;9.40;7.03;;;;;;;;;;6276720;22;20054;-81
2023/08/02 04:51:19;;;;;;;14.63;6.88;;;;;;;;;;6249557;22;20016;-82
2023/08/02 04:53:47;;;;;;;8.88;6.93;;;;;;;;;;6249250;22;20018;-81
2023/08/02 04:56:13;;;;;;;7.97;6.47;;;;;;;;;;6252733;22;20004;-80
2023/08/02 04:58:38;;;;;;;9.20;7.35;;;;;;;;;;6284785;22;20010;-81
2023/08/02 05:01:04;;;;;;;11.23;6.90;;;;;;;;;;6275719;22;19995;-81
2023/08/02 05:03:30;;;;;;;11.23;6.30;;;;;;;;;;6276722;22;20004;-82
2023/08/02 05:06:02;;;;;;;8.65;6.78;;;;;;;;;;6275754;22;20000;-82
2023/08/02 05:08:30;;;;;;;8.50;6.60;;;;;;;;;;6224314;22;20008;-82
2023/08/02 05:10:55;;;;;;;9.57;6.88;;;;;;;;;;6249169;22;20002;-81
2023/08/02 05:13:24;;;;;;;13.00;6.93;;;;;;;;;;6248817;22;20074;-81
2023/08/02 05:15:50;;;;;;;11.00;7.47;;;;;;;;;;6224207;22;20336;-81
2023/08/02 05:18:16;;;;;;;9.60;7.43;;;;;;;;;;6249430;22;20038;-81
2023/08/02 05:20:41;;;;;;;10.10;7.82;;;;;;;;;;6259787;22;19994;-81
2023/08/02 05:23:06;;;;;;;12.80;8.18;;;;;;;;;;6277844;22;20000;-81
2023/08/02 05:25:32;;;;;;;8.93;7.40;;;;;;;;;;6276260;22;20032;-81
2023/08/02 05:27:59;;;;;;;9.95;7.65;;;;;;;;;;6250643;22;19999;-81
2023/08/02 05:30:26;;;;;;;9.13;7.38;;;;;;;;;;6276566;22;20003;-81
2023/08/02 05:32:51;;;;;;;10.98;7.40;;;;;;;;;;6249104;22;20015;-81
2023/08/02 05:35:17;;;;;;;11.00;6.82;;;;;;;;;;6276133;22;20003;-81
2023/08/02 05:37:42;;;;;;;15.27;7.28;;;;;;;;;;6276949;22;20000;-81
2023/08/02 05:40:08;;;;;;;11.98;6.82;;;;;;;;;;6276675;22;20000;-81
2023/08/02 05:42:33;;;;;;;10.27;7.00;;;;;;;;;;6282064;22;20025;-81
2023/08/02 05:44:59;;;;;;;10.55;6.97;;;;;;;;;;6284300;22;20000;-78
2023/08/02 05:47:25;;;;;;;8.10;6.30;;;;;;;;;;6201233;22;20007;-82
2023/08/02 05:49:50;;;;;;;10.65;6.45;;;;;;;;;;6251512;22;20431;-82
2023/08/02 05:52:16;;;;;;;11.38;6.57;;;;;;;;;;6279226;22;20004;-79
2023/08/02 05:54:41;;;;;;;7.85;6.25;;;;;;;;;;6261217;22;20000;-79
2023/08/02 05:57:09;;;;;;;11.45;6.65;;;;;;;;;;6266347;22;20051;-82
2023/08/02 05:59:37;;;;;;;10.90;7.20;;;;;;;;;;6295308;22;20030;-81
2023/08/02 06:02:06;;;;;;;8.48;6.43;;;;;;;;;;6276317;22;20006;-81
2023/08/02 06:04:34;;;;;;;10.60;6.50;;;;;;;;;;6294994;22;20006;-80
2023/08/02 06:06:59;;;;;;;12.20;7.43;;;;;;;;;;6282967;22;20003;-82
2023/08/02 06:09:25;;;;;;;11.82;7.10;;;;;;;;;;6277989;22;20363;-80
2023/08/02 06:11:51;;;;;;;12.07;6.93;;;;;;;;;;6277795;22;20034;-82
2023/08/02 06:14:16;;;;;;;12.05;7.00;;;;;;;;;;6252262;22;20415;-80
2023/08/02 06:16:43;;;;;;;12.65;6.60;;;;;;;;;;6249194;22;20004;-81
2023/08/02 06:19:08;;;;;;;16.60;6.85;;;;;;;;;;6275076;22;20193;-81
2023/08/02 06:21:34;;;;;;;13.00;6.57;;;;;;;;;;6275309;22;20004;-81
2023/08/02 06:24:00;;;;;;;11.40;6.40;;;;;;;;;;6249188;22;20008;-81
2023/08/02 06:26:26;;;;;;;9.20;5.90;;;;;;;;;;6275675;22;20003;-82
2023/08/02 06:28:52;;;;;;;9.15;7.22;;;;;;;;;;6250702;22;20076;-81
2023/08/02 06:31:17;;;;;;;11.75;7.35;;;;;;;;;;6253965;22;20431;-82
2023/08/02 06:33:42;;;;;;;13.25;7.50;;;;;;;;;;6248563;22;20030;-82
2023/08/02 06:36:08;;;;;;;10.45;6.45;;;;;;;;;;6275922;22;21071;-82
2023/08/02 06:38:33;;;;;;;11.18;6.40;;;;;;;;;;6223192;22;20417;-82
2023/08/02 06:41:00;;;;;;;15.82;6.40;;;;;;;;;;6275307;22;20049;-81
2023/08/02 06:43:25;;;;;;;13.57;7.05;;;;;;;;;;6248596;22;20010;-81
2023/08/02 06:45:51;;;;;;;12.65;6.50;;;;;;;;;;6248530;22;20000;-82
2023/08/02 06:48:18;;;;;;;12.13;6.60;;;;;;;;;;6276068;22;20003;-82
2023/08/02 06:50:43;;;;;;;10.25;6.45;;;;;;;;;;6249162;22;20008;-82
2023/08/02 06:53:09;;;;;;;13.05;6.53;;;;;;;;;;6287626;22;20004;-82
2023/08/02 06:55:34;;;;;;;12.85;6.95;;;;;;;;;;6249070;22;19999;-82
2023/08/02 06:58:00;;;;;;;15.63;7.38;;;;;;;;;;6275766;22;20462;-79
2023/08/02 07:00:25;;;;;;;9.95;6.88;;;;;;;;;;6275494;22;20439;-81
2023/08/02 07:02:50;;;;;;;11.40;6.93;;;;;;;;;;6275225;22;20413;-81
2023/08/02 07:05:16;;;;;;;10.77;7.15;;;;;;;;;;6275820;22;20414;-82
2023/08/02 07:07:41;;;;;;;16.65;8.00;;;;;;;;;;6247820;22;20082;-81
2023/08/02 07:10:07;;;;;;;11.27;8.02;;;;;;;;;;6275284;22;20003;-81
2023/08/02 07:12:32;;;;;;;17.30;8.50;;;;;;;;;;6275169;22;20350;-80
2023/08/02 07:14:58;;;;;;;18.65;8.57;;;;;;;;;;6279324;22;20007;-81
2023/08/02 07:17:23;;;;;;;16.08;9.00;;;;;;;;;;6284974;22;20007;-82
2023/08/02 07:19:49;;;;;;;12.95;9.10;;;;;;;;;;6275757;22;20006;-85
2023/08/02 07:22:17;;;;;;;17.52;9.70;;;;;;;;;;6275182;22;20008;-81
2023/08/02 07:24:43;;;;;;;13.65;8.80;;;;;;;;;;6250950;22;20008;-80
2023/08/02 07:27:10;;;;;;;14.20;9.73;;;;;;;;;;6277512;22;20000;-80
2023/08/02 07:29:35;;;;;;;16.25;8.93;;;;;;;;;;6277002;22;20004;-81
2023/08/02 07:32:01;;;;;;;15.35;9.30;;;;;;;;;;6250502;22;20075;-82
2023/08/02 07:34:26;;;;;;;15.10;9.43;;;;;;;;;;6250134;22;20342;-83
2023/08/02 07:36:52;;;;;;;18.58;10.15;;;;;;;;;;6277502;22;20023;-81
2023/08/02 07:39:17;;;;;;;18.88;9.82;;;;;;;;;;6264272;22;20010;-81
2023/08/02 07:41:43;;;;;;;16.52;10.73;;;;;;;;;;6253710;22;19999;-81
2023/08/02 07:44:08;;;;;;;21.50;10.68;;;;;;;;;;6277313;22;19999;-82
2023/08/02 07:46:33;;;;;;;20.55;11.52;;;;;;;;;;6249667;22;20004;-82
2023/08/02 07:48:59;;;;;;;15.25;10.82;;;;;;;;;;6277401;22;20011;-81
2023/08/02 07:51:24;;;;;;;18.00;10.48;;;;;;;;;;6224361;22;20031;-82
2023/08/02 07:53:50;;;;;;;21.30;11.77;;;;;;;;;;6276898;22;20011;-82
2023/08/02 07:56:15;;;;;;;19.63;12.57;;;;;;;;;;6277442;22;20057;-82
2023/08/02 07:58:41;;;;;;;16.42;13.25;;;;;;;;;;6279337;22;20011;-81
2023/08/02 08:01:10;;;;;;;19.17;13.68;;;;;;;;;;6287922;22;19999;-82
2023/08/02 08:03:35;;;;;;;;;;;;;;;;;;6269696;22;19998;-79
2023/08/02 08:06:08;;;;;;;20.60;14.20;;;;;;;;;;6243882;22;19907;-81
2023/08/02 08:08:33;;;;;;;23.65;14.43;;;;;;;;;;6265492;22;19999;-81
2023/08/02 08:10:58;;;;;;;25.42;14.05;;;;;;;;;;6277814;22;20332;-82
2023/08/02 08:13:24;;;;;;;24.92;14.23;;;;;;;;;;6249910;22;20114;-84
2023/08/02 08:15:49;;;;;;;20.80;13.10;;;;;;;;;;6276667;22;20454;-83
2023/08/02 08:18:15;;;;;;;21.70;12.18;;;;;;;;;;6249713;22;20435;-82
2023/08/02 08:20:40;;;;;;;22.92;15.52;;;;;;;;;;6276808;22;20011;-81
2023/08/02 08:23:06;;;;;;;23.88;14.15;;;;;;;;;;6253997;22;19988;-81
2023/08/02 08:25:31;;;;;;;25.67;14.48;;;;;;;;;;6252094;22;20007;-82
2023/08/02 08:27:57;;;;;;;21.60;15.02;;;;;;;;;;6277046;22;20007;-81
2023/08/02 08:30:22;;;;;;;27.58;15.75;;;;;;;;;;6276574;22;19999;-82
2023/08/02 08:32:47;;;;;;;22.08;14.30;;;;;;;;;;6276921;22;20000;-82
2023/08/02 08:35:13;;;;;;;22.58;14.43;;;;;;;;;;6276325;22;20000;-82
2023/08/02 08:37:39;;;;;;;22.70;14.77;;;;;;;;;;6276794;22;20004;-82
2023/08/02 08:40:06;;;;;;;25.08;15.48;;;;;;;;;;6249218;22;20008;-82
2023/08/02 08:42:31;;;;;;;27.50;15.45;;;;;;;;;;6276238;22;20423;-81
2023/08/02 08:44:56;;;;;;;24.30;15.63;;;;;;;;;;6277744;22;20061;-82
2023/08/02 08:47:22;;;;;;;25.30;15.15;;;;;;;;;;6238229;22;20422;-82
2023/08/02 08:49:48;;;;;;;25.85;15.18;;;;;;;;;;6224655;22;20041;-81
2023/08/02 08:52:14;;;;;;;23.75;15.20;;;;;;;;;;6276165;22;20006;-82
2023/08/02 08:54:39;;;;;;;21.92;15.00;;;;;;;;;;6276345;22;20019;-80
2023/08/02 08:57:05;;;;;;;23.30;15.55;;;;;;;;;;6276479;22;20003;-81
2023/08/02 08:59:30;;;;;;;22.35;14.95;;;;;;;;;;6249369;22;20053;-82
2023/08/02 09:01:56;;;;;;;24.20;14.85;;;;;;;;;;6276116;22;20003;-82
2023/08/02 09:04:22;;;;;;;23.27;14.13;;;;;;;;;;6224371;22;20031;-81
2023/08/02 09:06:47;;;;;;;23.83;13.73;;;;;;;;;;6248922;22;20353;-82
2023/08/02 09:09:14;;;;;;;23.27;14.60;;;;;;;;;;6261027;22;19999;-80
2023/08/02 09:11:39;;;;;;;23.23;14.02;;;;;;;;;;6231204;22;20010;-81
2023/08/02 09:14:12;;;;;;;25.55;15.00;;;;;;;;;;6224028;22;20339;-81
2023/08/02 09:17:02;;;;;;;25.33;14.57;;;;;;;;;;6276663;22;20007;-81
2023/08/02 09:19:29;;;;;;;26.02;13.60;;;;;;;;;;6228580;22;20003;-82
2023/08/02 09:22:14;;;;;;;18.73;12.82;;;;;;;;;;6249249;22;20004;-81
2023/08/02 09:24:41;;;;;;;29.17;13.02;;;;;;;;;;6249585;22;20012;-81
2023/08/02 09:27:17;;;;;;;24.38;14.20;;;;;;;;;;6275907;22;20000;-82
2023/08/02 09:29:45;;;;;;;19.63;12.43;;;;;;;;;;6275997;22;20015;-82
2023/08/02 09:32:11;;;;;;;16.30;12.15;;;;;;;;;;6279879;22;19996;-81
2023/08/02 09:34:47;;;;;;;22.95;13.25;;;;;;;;;;6279445;22;20011;-81
2023/08/02 09:37:13;;;;;;;18.88;13.15;;;;;;;;;;6276167;22;20003;-82
2023/08/02 09:39:39;;;;;;;17.52;12.63;;;;;;;;;;6248684;22;20083;-81
2023/08/02 09:42:10;;;;;;;19.63;11.90;;;;;;;;;;6198622;22;20003;-82
2023/08/02 09:44:35;;;;;;;17.23;11.48;;;;;;;;;;6248507;22;20069;-83
2023/08/02 09:47:10;;;;;;;20.70;11.75;;;;;;;;;;6248455;22;20007;-82
2023/08/02 09:49:37;;;;;;;18.23;11.15;;;;;;;;;;6249039;22;19999;-80
2023/08/02 09:52:02;;;;;;;16.35;11.10;;;;;;;;;;6248758;22;20015;-81
2023/08/02 09:54:31;;;;;;;19.60;10.73;;;;;;;;;;6248506;22;20008;-80
2023/08/02 09:56:57;;;;;;;25.92;12.70;;;;;;;;;;6207825;22;20094;-81
2023/08/02 09:59:23;;;;;;;18.15;11.20;;;;;;;;;;6276305;22;20049;-81
2023/08/02 10:01:48;;;;;;;16.77;12.13;;;;;;;;;;6224406;22;20343;-81
2023/08/02 10:04:14;;;;;;;18.75;11.05;;;;;;;;;;6248318;22;20003;-82
2023/08/02 10:06:42;;;;;;;15.40;11.02;;;;;;;;;;6275745;22;20008;-81
2023/08/02 10:09:08;;;;;;;16.20;10.50;;;;;;;;;;6275405;22;20004;-81
2023/08/02 10:11:39;;;;;;;14.80;10.55;;;;;;;;;;6248372;22;20000;-81
2023/08/02 10:14:05;;;;;;;21.50;11.15;;;;;;;;;;6248732;22;20094;-80
2023/08/02 10:16:31;;;;;;;17.98;10.55;;;;;;;;;;6248361;22;20015;-82
2023/08/02 10:18:56;;;;;;;18.27;11.43;;;;;;;;;;6225447;22;20086;-80
2023/08/02 10:21:22;;;;;;;19.83;11.85;;;;;;;;;;6251338;22;20003;-81
2023/08/02 10:23:48;;;;;;;18.73;12.18;;;;;;;;;;6248760;22;20006;-80
2023/08/02 10:26:13;;;;;;;20.77;13.00;;;;;;;;;;6248740;22;20003;-81
2023/08/02 10:28:40;;;;;;;20.30;12.82;;;;;;;;;;6223384;22;20479;-82
2023/08/02 10:31:08;;;;;;;17.95;13.05;;;;;;;;;;6275167;22;20010;-81
2023/08/02 10:33:33;;;;;;;19.58;12.15;;;;;;;;;;6224377;22;20003;-80
2023/08/02 10:36:03;;;;;;;18.30;12.38;;;;;;;;;;6275381;22;20010;-82
2023/08/02 10:38:43;;;;;;;19.88;12.73;;;;;;;;;;6275417;22;20004;-81
2023/08/02 10:41:10;;;;;;;20.75;13.00;;;;;;;;;;6277076;22;20006;-80
2023/08/02 10:43:53;;;;;;;20.65;11.63;;;;;;;;;;6225110;22;20004;-82
2023/08/02 10:46:26;;;;;;;26.40;8.82;;;;;;;;;;6275911;22;20058;-82
2023/08/02 10:48:52;;;;;;;15.57;9.02;;;;;;;;;;6248277;22;20441;-82
2023/08/02 10:51:26;;;;;;;19.65;9.77;;;;;;;;;;6275173;22;20012;-81
2023/08/02 10:54:21;;;;;;;20.02;9.98;;;;;;;;;;6275409;22;20003;-80
2023/08/02 10:56:53;;;;;;;17.05;9.90;;;;;;;;;;6249736;22;19999;-81
2023/08/02 10:59:24;;;;;;;17.88;10.57;;;;;;;;;;6247160;22;20431;-81
2023/08/02 11:02:00;;;;;;;15.13;9.35;;;;;;;;;;6248064;22;20473;-81
2023/08/02 11:04:26;;;;;;;13.48;9.45;;;;;;;;;;6276575;22;20038;-81
2023/08/02 11:06:52;;;;;;;14.25;9.32;;;;;;;;;;6255263;22;20003;-81
2023/08/02 11:09:18;;;;;;;10.85;7.68;;;;;;;;;;6250823;22;20004;-81
2023/08/02 11:11:43;;;;;;;12.32;7.38;;;;;;;;;;6275179;22;20028;-81
2023/08/02 11:14:09;;;;;;;12.80;7.88;;;;;;;;;;6247957;22;20004;-81
2023/08/02 11:16:41;;;;;;;9.55;6.85;;;;;;;;;;6222486;22;20008;-81
2023/08/02 11:19:10;;;;;;;11.57;7.75;;;;;;;;;;6248038;22;20000;-81
2023/08/02 11:21:36;;;;;;;12.40;8.38;;;;;;;;;;6275256;22;20000;-81
2023/08/02 11:24:01;;;;;;;11.52;7.55;;;;;;;;;;6248143;22;20362;-80
2023/08/02 11:26:27;;;;;;;12.82;8.43;;;;;;;;;;6274864;22;20065;-81
2023/08/02 11:28:53;;;;;;;14.80;8.80;;;;;;;;;;6255012;22;20003;-80
2023/08/02 11:31:22;;;;;;;15.25;9.18;;;;;;;;;;6278415;22;20087;-81
2023/08/02 11:33:47;;;;;;;14.07;9.55;;;;;;;;;;6275062;22;20008;-80
2023/08/02 11:36:13;;;;;;;12.13;8.18;;;;;;;;;;6248370;22;20330;-80
2023/08/02 11:38:38;;;;;;;13.18;9.10;;;;;;;;;;6248053;22;20423;-81
2023/08/02 11:41:20;;;;;;;12.15;8.90;;;;;;;;;;6248165;22;20426;-82
2023/08/02 11:43:46;;;;;;;12.27;8.18;;;;;;;;;;6275303;22;19999;-81
2023/08/02 11:46:17;;;;;;;12.07;8.10;;;;;;;;;;6275319;22;20007;-80
2023/08/02 11:48:43;;;;;;;11.85;7.60;;;;;;;;;;6248727;22;20354;-81
2023/08/02 11:51:10;;;;;;;12.70;8.32;;;;;;;;;;6250379;22;20003;-81
2023/08/02 11:53:35;;;;;;;14.27;9.90;;;;;;;;;;6226229;22;20090;-81
2023/08/02 11:56:00;;;;;;;13.15;8.48;;;;;;;;;;6222768;22;19999;-80
2023/08/02 11:58:26;;;;;;;12.38;7.95;;;;;;;;;;6222851;22;20418;-80
2023/08/02 12:00:51;;;;;;;13.60;8.40;;;;;;;;;;6222359;22;20371;-80
2023/08/02 12:03:17;;;;;;;12.75;6.97;;;;;;;;;;6222719;22;20004;-81
2023/08/02 12:05:43;;;;;;;12.35;6.97;;;;;;;;;;6247384;22;20372;-81
2023/08/02 12:08:10;;;;;;;12.40;7.20;;;;;;;;;;6222356;22;20359;-81
2023/08/02 12:10:38;;;;;;;9.98;7.35;;;;;;;;;;6249909;22;19996;-80
2023/08/02 12:13:10;;;;;;;9.65;6.88;;;;;;;;;;6276568;22;20000;-81
2023/08/02 12:15:36;;;;;;;12.18;7.55;;;;;;;;;;6204777;22;19996;-81
2023/08/02 12:18:05;;;;;;;12.00;8.55;;;;;;;;;;6250737;22;20038;-81
2023/08/02 12:20:31;;;;;;;12.50;8.75;;;;;;;;;;6249616;22;20342;-81
2023/08/02 12:22:57;;;;;;;13.27;8.68;;;;;;;;;;6275850;22;20015;-81
2023/08/02 12:25:22;;;;;;;10.00;7.78;;;;;;;;;;6249221;22;19999;-81
2023/08/02 12:28:06;;;;;;;11.70;8.40;;;;;;;;;;6276918;22;20003;-81
2023/08/02 12:30:32;;;;;;;13.60;8.68;;;;;;;;;;6276462;22;19995;-81
2023/08/02 12:32:58;;;;;;;11.32;8.45;;;;;;;;;;6276686;22;20034;-82
2023/08/02 12:35:25;;;;;;;12.13;8.75;;;;;;;;;;6199203;22;20389;-80
2023/08/02 12:37:51;;;;;;;12.50;9.40;;;;;;;;;;6229708;22;20007;-81
2023/08/02 12:40:17;;;;;;;15.27;9.57;;;;;;;;;;6254815;22;19999;-81
2023/08/02 12:42:42;;;;;;;18.50;10.63;;;;;;;;;;6249818;22;20035;-81
2023/08/02 12:45:08;;;;;;;16.00;10.38;;;;;;;;;;6249957;22;20035;-79
2023/08/02 12:47:33;;;;;;;13.32;10.50;;;;;;;;;;6276583;22;20486;-82
2023/08/02 12:49:59;;;;;;;15.13;10.70;;;;;;;;;;6275839;22;20062;-82
2023/08/02 12:52:24;;;;;;;16.50;9.95;;;;;;;;;;6223868;22;20011;-81
2023/08/02 12:54:49;;;;;;;12.25;9.55;;;;;;;;;;6276154;22;20007;-81
2023/08/02 12:57:15;;;;;;;13.63;10.05;;;;;;;;;;6249179;22;19999;-80
2023/08/02 12:59:40;;;;;;;10.65;8.70;;;;;;;;;;6249473;22;20003;-81
2023/08/02 13:02:06;;;;;;;11.75;9.27;;;;;;;;;;6283526;22;19996;-81
2023/08/02 13:04:31;;;;;;;14.00;9.65;;;;;;;;;;6277091;22;20086;-81
2023/08/02 13:06:57;;;;;;;14.30;9.85;;;;;;;;;;6276264;22;20489;-80
2023/08/02 13:09:23;;;;;;;11.65;9.18;;;;;;;;;;6249026;22;20011;-82
2023/08/02 13:11:49;;;;;;;17.08;8.80;;;;;;;;;;6249241;22;19999;-81
2023/08/02 13:14:14;;;;;;;11.95;8.45;;;;;;;;;;6223642;22;20007;-82
2023/08/02 13:16:39;;;;;;;10.80;7.78;;;;;;;;;;6223777;22;20004;-82
2023/08/02 13:19:05;;;;;;;10.77;7.65;;;;;;;;;;6248875;22;19999;-81
2023/08/02 13:21:30;;;;;;;10.63;7.38;;;;;;;;;;6275690;22;20414;-81
2023/08/02 13:23:56;;;;;;;9.40;7.05;;;;;;;;;;6252159;22;20004;-81
2023/08/02 13:26:21;;;;;;;9.75;7.50;;;;;;;;;;6278735;22;20075;-82
2023/08/02 13:28:47;;;;;;;14.05;7.70;;;;;;;;;;6249126;22;20010;-81
2023/08/02 13:31:12;;;;;;;12.27;7.80;;;;;;;;;;6275612;22;19995;-81
2023/08/02 13:33:41;;;;;;;14.25;7.15;;;;;;;;;;6276253;22;20086;-81
2023/08/02 13:36:07;;;;;;;13.07;7.27;;;;;;;;;;6278282;22;20000;-81
2023/08/02 13:38:33;;;;;;;9.13;7.00;;;;;;;;;;6286246;22;19999;-80
2023/08/02 13:40:58;;;;;;;7.05;5.32;;;;;;;;;;6264832;22;20006;-81
2023/08/02 13:43:24;;;;;;;6.18;4.68;;;;;;;;;;6240678;22;20000;-81
2023/08/02 13:45:50;;;;;;;6.60;4.95;;;;;;;;;;6259702;22;20413;-79
2023/08/02 13:48:15;;;;;;;7.68;4.35;;;;;;;;;;6283602;22;20347;-81
2023/08/02 13:50:41;;;;;;;6.15;4.22;;;;;;;;;;6280255;22;20434;-81
2023/08/02 13:53:06;;;;;;;6.15;4.68;;;;;;;;;;6275805;22;20004;-82
2023/08/02 13:55:32;;;;;;;7.18;4.78;;;;;;;;;;6276379;22;20412;-82
2023/08/02 13:57:58;;;;;;;5.78;4.80;;;;;;;;;;6275916;22;20003;-81
2023/08/02 14:00:23;;;;;;;6.85;4.40;;;;;;;;;;6223676;22;20007;-81
2023/08/02 14:02:48;;;;;;;6.55;5.00;;;;;;;;;;6275630;22;20074;-81
2023/08/02 14:05:14;;;;;;;6.80;5.00;;;;;;;;;;6248974;22;20006;-82
2023/08/02 14:07:40;;;;;;;6.97;4.82;;;;;;;;;;6248697;22;20346;-81
2023/08/02 14:10:06;;;;;;;8.57;5.80;;;;;;;;;;6276714;22;20061;-81
2023/08/02 14:12:31;;;;;;;6.10;5.10;;;;;;;;;;6227849;22;20086;-81
2023/08/02 14:14:56;;;;;;;6.47;5.60;;;;;;;;;;6276377;22;20066;-82
2023/08/02 14:17:22;;;;;;;7.65;5.28;;;;;;;;;;6276187;22;20101;-80
2023/08/02 14:19:48;;;;;;;8.23;5.00;;;;;;;;;;6250106;22;20004;-81
2023/08/02 14:22:13;;;;;;;6.68;5.35;;;;;;;;;;6278190;22;20003;-82
2023/08/02 14:24:39;;;;;;;9.68;5.18;;;;;;;;;;6252816;22;20011;-82